sensor_id;sensor_type;location;lat;lon;timestamp;temperature;humidity
12303;DHT22;6214;48.012;7.862;2022-07-12T00:01:51;23.00;99.90
12303;DHT22;6214;48.012;7.862;2022-07-12T00:04:18;22.80;99.90
12303;DHT22;6214;48.012;7.862;2022-07-12T00:06:45;22.70;99.90
12303;DHT22;6214;48.012;7.862;2022-07-12T00:09:12;22.50;99.90
12303;DHT22;6214;48.012;7.862;2022-07-12T00:11:39;22.20;99.90
12303;DHT22;6214;48.012;7.862;2022-07-12T00:14:06;21.90;99.90
12303;DHT22;6214;48.012;7.862;2022-07-12T00:16:33;21.80;99.90
12303;DHT22;6214;48.012;7.862;2022-07-12T00:19:01;21.70;99.90
12303;DHT22;6214;48.012;7.862;2022-07-12T00:21:27;21.60;99.90
12303;DHT22;6214;48.012;7.862;2022-07-12T00:23:55;21.50;99.90
12303;DHT22;6214;48.012;7.862;2022-07-12T00:26:22;21.50;99.90
12303;DHT22;6214;48.012;7.862;2022-07-12T00:28:49;21.30;99.90
12303;DHT22;6214;48.012;7.862;2022-07-12T00:31:16;21.20;99.90
12303;DHT22;6214;48.012;7.862;2022-07-12T00:33:43;21.30;99.90
12303;DHT22;6214;48.012;7.862;2022-07-12T00:36:10;21.30;99.90
12303;DHT22;6214;48.012;7.862;2022-07-12T00:38:36;21.00;99.90
12303;DHT22;6214;48.012;7.862;2022-07-12T00:41:04;20.90;99.90
12303;DHT22;6214;48.012;7.862;2022-07-12T00:43:31;20.90;99.90
12303;DHT22;6214;48.012;7.862;2022-07-12T00:45:57;20.70;99.90
12303;DHT22;6214;48.012;7.862;2022-07-12T00:48:24;20.60;99.90
12303;DHT22;6214;48.012;7.862;2022-07-12T00:50:52;20.60;99.90
12303;DHT22;6214;48.012;7.862;2022-07-12T00:53:18;20.70;99.90
12303;DHT22;6214;48.012;7.862;2022-07-12T00:55:59;20.80;99.90
12303;DHT22;6214;48.012;7.862;2022-07-12T00:58:26;20.70;99.90
12303;DHT22;6214;48.012;7.862;2022-07-12T01:00:58;20.60;99.90
12303;DHT22;6214;48.012;7.862;2022-07-12T01:03:26;20.50;99.90
12303;DHT22;6214;48.012;7.862;2022-07-12T01:05:54;20.50;99.90
12303;DHT22;6214;48.012;7.862;2022-07-12T01:08:23;20.50;99.90
12303;DHT22;6214;48.012;7.862;2022-07-12T01:10:50;20.30;99.90
12303;DHT22;6214;48.012;7.862;2022-07-12T01:13:17;20.30;99.90
12303;DHT22;6214;48.012;7.862;2022-07-12T01:15:46;20.10;99.90
12303;DHT22;6214;48.012;7.862;2022-07-12T01:18:15;19.90;99.90
12303;DHT22;6214;48.012;7.862;2022-07-12T01:20:43;20.00;99.90
12303;DHT22;6214;48.012;7.862;2022-07-12T01:23:11;20.00;99.90
12303;DHT22;6214;48.012;7.862;2022-07-12T01:25:38;19.80;99.90
12303;DHT22;6214;48.012;7.862;2022-07-12T01:28:05;19.80;99.90
12303;DHT22;6214;48.012;7.862;2022-07-12T01:30:32;19.70;99.90
12303;DHT22;6214;48.012;7.862;2022-07-12T01:33:00;19.70;99.90
12303;DHT22;6214;48.012;7.862;2022-07-12T01:35:27;19.60;99.90
12303;DHT22;6214;48.012;7.862;2022-07-12T01:37:55;19.50;99.90
12303;DHT22;6214;48.012;7.862;2022-07-12T01:40:22;19.70;99.90
12303;DHT22;6214;48.012;7.862;2022-07-12T01:42:50;19.70;99.90
12303;DHT22;6214;48.012;7.862;2022-07-12T01:45:18;19.60;99.90
12303;DHT22;6214;48.012;7.862;2022-07-12T01:47:45;19.50;99.90
12303;DHT22;6214;48.012;7.862;2022-07-12T01:50:12;19.30;99.90
12303;DHT22;6214;48.012;7.862;2022-07-12T01:52:40;19.30;99.90
12303;DHT22;6214;48.012;7.862;2022-07-12T01:55:09;19.30;99.90
12303;DHT22;6214;48.012;7.862;2022-07-12T01:57:38;19.20;99.90
12303;DHT22;6214;48.012;7.862;2022-07-12T02:00:05;19.20;99.90
12303;DHT22;6214;48.012;7.862;2022-07-12T02:02:33;19.10;99.90
12303;DHT22;6214;48.012;7.862;2022-07-12T02:05:00;19.00;99.90
12303;DHT22;6214;48.012;7.862;2022-07-12T02:07:28;19.10;99.90
12303;DHT22;6214;48.012;7.862;2022-07-12T02:09:55;18.90;99.90
12303;DHT22;6214;48.012;7.862;2022-07-12T02:12:22;18.90;99.90
12303;DHT22;6214;48.012;7.862;2022-07-12T02:14:50;19.00;99.90
12303;DHT22;6214;48.012;7.862;2022-07-12T02:17:17;19.10;99.90
12303;DHT22;6214;48.012;7.862;2022-07-12T02:19:44;18.90;99.90
12303;DHT22;6214;48.012;7.862;2022-07-12T02:22:11;18.90;99.90
12303;DHT22;6214;48.012;7.862;2022-07-12T02:24:38;18.80;99.90
12303;DHT22;6214;48.012;7.862;2022-07-12T02:27:06;18.80;99.90
12303;DHT22;6214;48.012;7.862;2022-07-12T02:29:33;18.80;99.90
12303;DHT22;6214;48.012;7.862;2022-07-12T02:32:00;18.70;99.90
12303;DHT22;6214;48.012;7.862;2022-07-12T02:34:27;18.70;99.90
12303;DHT22;6214;48.012;7.862;2022-07-12T02:36:54;18.80;99.90
12303;DHT22;6214;48.012;7.862;2022-07-12T02:39:21;18.70;99.90
12303;DHT22;6214;48.012;7.862;2022-07-12T02:41:48;18.70;99.90
12303;DHT22;6214;48.012;7.862;2022-07-12T02:44:15;18.70;99.90
12303;DHT22;6214;48.012;7.862;2022-07-12T02:46:42;18.70;99.90
12303;DHT22;6214;48.012;7.862;2022-07-12T02:49:09;18.60;99.90
12303;DHT22;6214;48.012;7.862;2022-07-12T02:51:36;18.70;99.90
12303;DHT22;6214;48.012;7.862;2022-07-12T02:54:03;18.70;99.90
12303;DHT22;6214;48.012;7.862;2022-07-12T02:56:30;18.80;99.90
12303;DHT22;6214;48.012;7.862;2022-07-12T02:58:56;19.00;99.90
12303;DHT22;6214;48.012;7.862;2022-07-12T03:01:23;18.80;99.90
12303;DHT22;6214;48.012;7.862;2022-07-12T03:03:50;18.90;99.90
12303;DHT22;6214;48.012;7.862;2022-07-12T03:06:17;18.70;99.90
12303;DHT22;6214;48.012;7.862;2022-07-12T03:08:44;18.80;99.90
12303;DHT22;6214;48.012;7.862;2022-07-12T03:11:11;18.60;99.90
12303;DHT22;6214;48.012;7.862;2022-07-12T03:13:38;18.70;99.90
12303;DHT22;6214;48.012;7.862;2022-07-12T03:16:05;18.40;99.90
12303;DHT22;6214;48.012;7.862;2022-07-12T03:18:34;18.60;99.90
12303;DHT22;6214;48.012;7.862;2022-07-12T03:21:01;18.60;99.90
12303;DHT22;6214;48.012;7.862;2022-07-12T03:23:28;18.50;99.90
12303;DHT22;6214;48.012;7.862;2022-07-12T03:25:55;18.40;99.90
12303;DHT22;6214;48.012;7.862;2022-07-12T03:28:22;18.40;99.90
12303;DHT22;6214;48.012;7.862;2022-07-12T03:30:49;18.30;99.90
12303;DHT22;6214;48.012;7.862;2022-07-12T03:33:17;18.20;99.90
12303;DHT22;6214;48.012;7.862;2022-07-12T03:35:44;18.30;99.90
12303;DHT22;6214;48.012;7.862;2022-07-12T03:38:10;18.40;99.90
12303;DHT22;6214;48.012;7.862;2022-07-12T03:40:37;18.40;99.90
12303;DHT22;6214;48.012;7.862;2022-07-12T03:43:04;18.50;99.90
12303;DHT22;6214;48.012;7.862;2022-07-12T03:45:31;18.40;99.90
12303;DHT22;6214;48.012;7.862;2022-07-12T03:47:58;18.30;99.90
12303;DHT22;6214;48.012;7.862;2022-07-12T03:50:25;18.10;99.90
12303;DHT22;6214;48.012;7.862;2022-07-12T03:52:51;18.10;99.90
12303;DHT22;6214;48.012;7.862;2022-07-12T03:55:19;18.10;99.90
12303;DHT22;6214;48.012;7.862;2022-07-12T03:57:47;18.10;99.90
12303;DHT22;6214;48.012;7.862;2022-07-12T04:00:14;18.10;99.90
12303;DHT22;6214;48.012;7.862;2022-07-12T04:02:42;18.00;99.90
12303;DHT22;6214;48.012;7.862;2022-07-12T04:05:10;17.90;99.90
12303;DHT22;6214;48.012;7.862;2022-07-12T04:07:37;17.90;99.90
12303;DHT22;6214;48.012;7.862;2022-07-12T04:10:05;17.90;99.90
12303;DHT22;6214;48.012;7.862;2022-07-12T04:12:32;17.90;99.90
12303;DHT22;6214;48.012;7.862;2022-07-12T04:14:59;17.80;99.90
12303;DHT22;6214;48.012;7.862;2022-07-12T04:17:26;17.70;99.90
12303;DHT22;6214;48.012;7.862;2022-07-12T04:19:53;17.70;99.90
12303;DHT22;6214;48.012;7.862;2022-07-12T04:22:20;17.70;99.90
12303;DHT22;6214;48.012;7.862;2022-07-12T04:24:47;17.60;99.90
12303;DHT22;6214;48.012;7.862;2022-07-12T04:27:14;17.70;99.90
12303;DHT22;6214;48.012;7.862;2022-07-12T04:29:41;17.80;99.90
12303;DHT22;6214;48.012;7.862;2022-07-12T04:32:08;17.80;99.90
12303;DHT22;6214;48.012;7.862;2022-07-12T04:34:35;17.70;99.90
12303;DHT22;6214;48.012;7.862;2022-07-12T04:37:02;17.60;99.90
12303;DHT22;6214;48.012;7.862;2022-07-12T04:39:29;17.70;99.90
12303;DHT22;6214;48.012;7.862;2022-07-12T04:41:56;17.70;99.90
12303;DHT22;6214;48.012;7.862;2022-07-12T04:44:23;17.70;99.90
12303;DHT22;6214;48.012;7.862;2022-07-12T04:46:50;17.70;99.90
12303;DHT22;6214;48.012;7.862;2022-07-12T04:49:17;17.70;99.90
12303;DHT22;6214;48.012;7.862;2022-07-12T04:51:44;17.60;99.90
12303;DHT22;6214;48.012;7.862;2022-07-12T04:54:11;17.60;99.90
12303;DHT22;6214;48.012;7.862;2022-07-12T04:56:38;17.60;99.90
12303;DHT22;6214;48.012;7.862;2022-07-12T04:59:05;17.70;99.90
12303;DHT22;6214;48.012;7.862;2022-07-12T05:01:32;17.70;99.90
12303;DHT22;6214;48.012;7.862;2022-07-12T05:03:59;17.60;99.90
12303;DHT22;6214;48.012;7.862;2022-07-12T05:06:26;17.50;99.90
12303;DHT22;6214;48.012;7.862;2022-07-12T05:08:53;17.50;99.90
12303;DHT22;6214;48.012;7.862;2022-07-12T05:11:20;17.50;99.90
12303;DHT22;6214;48.012;7.862;2022-07-12T05:13:47;17.50;99.90
12303;DHT22;6214;48.012;7.862;2022-07-12T05:16:14;17.60;99.90
12303;DHT22;6214;48.012;7.862;2022-07-12T05:18:41;17.60;99.90
12303;DHT22;6214;48.012;7.862;2022-07-12T05:21:08;17.90;99.90
12303;DHT22;6214;48.012;7.862;2022-07-12T05:23:35;17.90;99.90
12303;DHT22;6214;48.012;7.862;2022-07-12T05:26:02;18.30;99.90
12303;DHT22;6214;48.012;7.862;2022-07-12T05:28:29;18.30;99.90
12303;DHT22;6214;48.012;7.862;2022-07-12T05:30:56;18.40;99.90
12303;DHT22;6214;48.012;7.862;2022-07-12T05:33:23;18.50;99.90
12303;DHT22;6214;48.012;7.862;2022-07-12T05:35:49;18.60;99.90
12303;DHT22;6214;48.012;7.862;2022-07-12T05:38:18;18.60;99.90
12303;DHT22;6214;48.012;7.862;2022-07-12T05:40:45;18.80;99.90
12303;DHT22;6214;48.012;7.862;2022-07-12T05:43:12;19.00;99.90
12303;DHT22;6214;48.012;7.862;2022-07-12T05:45:41;19.30;99.90
12303;DHT22;6214;48.012;7.862;2022-07-12T05:48:08;19.50;99.90
12303;DHT22;6214;48.012;7.862;2022-07-12T05:50:35;19.70;99.90
12303;DHT22;6214;48.012;7.862;2022-07-12T05:53:02;19.90;99.90
12303;DHT22;6214;48.012;7.862;2022-07-12T05:55:48;20.10;99.90
12303;DHT22;6214;48.012;7.862;2022-07-12T05:58:15;20.40;99.90
12303;DHT22;6214;48.012;7.862;2022-07-12T06:00:42;20.70;99.90
12303;DHT22;6214;48.012;7.862;2022-07-12T06:03:09;20.80;99.90
12303;DHT22;6214;48.012;7.862;2022-07-12T06:05:37;21.00;99.90
12303;DHT22;6214;48.012;7.862;2022-07-12T06:08:04;21.20;99.90
12303;DHT22;6214;48.012;7.862;2022-07-12T06:10:31;21.70;99.90
12303;DHT22;6214;48.012;7.862;2022-07-12T06:12:58;21.90;99.90
12303;DHT22;6214;48.012;7.862;2022-07-12T06:15:25;22.00;99.90
12303;DHT22;6214;48.012;7.862;2022-07-12T06:17:59;22.10;99.90
12303;DHT22;6214;48.012;7.862;2022-07-12T06:20:26;22.30;99.90
12303;DHT22;6214;48.012;7.862;2022-07-12T06:22:53;22.40;99.90
12303;DHT22;6214;48.012;7.862;2022-07-12T06:25:21;22.40;99.90
12303;DHT22;6214;48.012;7.862;2022-07-12T06:28:08;22.60;99.90
12303;DHT22;6214;48.012;7.862;2022-07-12T06:30:35;23.00;99.90
12303;DHT22;6214;48.012;7.862;2022-07-12T06:33:02;23.30;99.90
12303;DHT22;6214;48.012;7.862;2022-07-12T06:35:29;23.40;99.90
12303;DHT22;6214;48.012;7.862;2022-07-12T06:37:55;23.80;99.90
12303;DHT22;6214;48.012;7.862;2022-07-12T06:40:22;24.00;99.90
12303;DHT22;6214;48.012;7.862;2022-07-12T06:42:49;24.50;99.90
12303;DHT22;6214;48.012;7.862;2022-07-12T06:45:17;24.90;99.90
12303;DHT22;6214;48.012;7.862;2022-07-12T06:47:44;25.60;99.90
12303;DHT22;6214;48.012;7.862;2022-07-12T06:50:11;25.80;99.90
12303;DHT22;6214;48.012;7.862;2022-07-12T06:52:38;26.10;99.90
12303;DHT22;6214;48.012;7.862;2022-07-12T06:55:06;26.30;99.90
12303;DHT22;6214;48.012;7.862;2022-07-12T06:57:33;26.60;99.90
12303;DHT22;6214;48.012;7.862;2022-07-12T07:00:01;27.20;99.90
12303;DHT22;6214;48.012;7.862;2022-07-12T07:02:31;27.80;99.90
12303;DHT22;6214;48.012;7.862;2022-07-12T07:04:57;28.10;99.90
12303;DHT22;6214;48.012;7.862;2022-07-12T07:07:24;29.20;99.90
12303;DHT22;6214;48.012;7.862;2022-07-12T07:09:51;30.20;99.90
12303;DHT22;6214;48.012;7.862;2022-07-12T07:12:18;31.20;99.90
12303;DHT22;6214;48.012;7.862;2022-07-12T07:14:45;32.70;99.90
12303;DHT22;6214;48.012;7.862;2022-07-12T07:17:17;33.30;97.30
12303;DHT22;6214;48.012;7.862;2022-07-12T07:19:44;33.60;95.50
12303;DHT22;6214;48.012;7.862;2022-07-12T07:22:12;34.40;92.20
12303;DHT22;6214;48.012;7.862;2022-07-12T07:24:40;34.50;90.00
12303;DHT22;6214;48.012;7.862;2022-07-12T07:27:07;35.50;88.10
12303;DHT22;6214;48.012;7.862;2022-07-12T07:29:35;35.40;79.60
12303;DHT22;6214;48.012;7.862;2022-07-12T07:32:20;35.30;80.00
12303;DHT22;6214;48.012;7.862;2022-07-12T07:34:47;35.20;78.40
12303;DHT22;6214;48.012;7.862;2022-07-12T07:37:14;35.50;77.90
12303;DHT22;6214;48.012;7.862;2022-07-12T07:39:41;36.20;77.80
12303;DHT22;6214;48.012;7.862;2022-07-12T07:42:08;36.10;74.80
12303;DHT22;6214;48.012;7.862;2022-07-12T07:44:35;36.50;74.90
12303;DHT22;6214;48.012;7.862;2022-07-12T07:47:22;36.80;72.10
12303;DHT22;6214;48.012;7.862;2022-07-12T07:49:49;36.70;69.90
12303;DHT22;6214;48.012;7.862;2022-07-12T07:52:16;36.80;70.50
12303;DHT22;6214;48.012;7.862;2022-07-12T07:54:42;37.00;69.10
12303;DHT22;6214;48.012;7.862;2022-07-12T07:57:09;37.10;67.10
12303;DHT22;6214;48.012;7.862;2022-07-12T07:59:36;37.00;68.00
12303;DHT22;6214;48.012;7.862;2022-07-12T08:02:03;37.70;67.90
12303;DHT22;6214;48.012;7.862;2022-07-12T08:04:31;38.30;69.00
12303;DHT22;6214;48.012;7.862;2022-07-12T08:06:58;38.70;65.00
12303;DHT22;6214;48.012;7.862;2022-07-12T08:09:25;39.10;63.80
12303;DHT22;6214;48.012;7.862;2022-07-12T08:11:52;39.70;61.80
12303;DHT22;6214;48.012;7.862;2022-07-12T08:14:19;39.70;59.90
12303;DHT22;6214;48.012;7.862;2022-07-12T08:16:45;38.70;60.50
12303;DHT22;6214;48.012;7.862;2022-07-12T08:19:12;38.80;61.60
12303;DHT22;6214;48.012;7.862;2022-07-12T08:21:39;39.10;62.20
12303;DHT22;6214;48.012;7.862;2022-07-12T08:24:06;39.50;59.50
12303;DHT22;6214;48.012;7.862;2022-07-12T08:26:33;39.50;59.10
12303;DHT22;6214;48.012;7.862;2022-07-12T08:29:00;39.50;59.60
12303;DHT22;6214;48.012;7.862;2022-07-12T08:31:27;39.90;59.60
12303;DHT22;6214;48.012;7.862;2022-07-12T08:33:54;40.20;57.90
12303;DHT22;6214;48.012;7.862;2022-07-12T08:36:20;40.50;57.90
12303;DHT22;6214;48.012;7.862;2022-07-12T08:38:47;41.70;56.00
12303;DHT22;6214;48.012;7.862;2022-07-12T08:41:14;42.20;54.20
12303;DHT22;6214;48.012;7.862;2022-07-12T08:43:42;41.20;54.00
12303;DHT22;6214;48.012;7.862;2022-07-12T08:46:11;40.60;54.40
12303;DHT22;6214;48.012;7.862;2022-07-12T08:48:40;41.00;54.20
12303;DHT22;6214;48.012;7.862;2022-07-12T08:51:10;40.90;53.20
12303;DHT22;6214;48.012;7.862;2022-07-12T08:53:38;41.90;53.60
12303;DHT22;6214;48.012;7.862;2022-07-12T08:56:06;42.60;54.20
12303;DHT22;6214;48.012;7.862;2022-07-12T08:58:33;42.60;53.00
12303;DHT22;6214;48.012;7.862;2022-07-12T09:01:00;43.00;53.00
12303;DHT22;6214;48.012;7.862;2022-07-12T09:03:27;42.80;51.60
12303;DHT22;6214;48.012;7.862;2022-07-12T09:05:58;42.70;52.40
12303;DHT22;6214;48.012;7.862;2022-07-12T09:08:26;42.30;52.60
12303;DHT22;6214;48.012;7.862;2022-07-12T09:11:16;42.60;51.40
12303;DHT22;6214;48.012;7.862;2022-07-12T09:13:52;42.00;50.40
12303;DHT22;6214;48.012;7.862;2022-07-12T09:16:24;41.40;51.30
12303;DHT22;6214;48.012;7.862;2022-07-12T09:19:17;40.40;51.90
12303;DHT22;6214;48.012;7.862;2022-07-12T09:21:49;40.70;53.40
12303;DHT22;6214;48.012;7.862;2022-07-12T09:24:17;40.90;51.70
12303;DHT22;6214;48.012;7.862;2022-07-12T09:26:45;40.50;51.90
12303;DHT22;6214;48.012;7.862;2022-07-12T09:29:13;39.50;52.50
12303;DHT22;6214;48.012;7.862;2022-07-12T09:31:50;38.50;54.10
12303;DHT22;6214;48.012;7.862;2022-07-12T09:34:37;38.50;56.50
12303;DHT22;6214;48.012;7.862;2022-07-12T09:37:24;38.30;55.10
12303;DHT22;6214;48.012;7.862;2022-07-12T09:39:54;38.00;55.10
12303;DHT22;6214;48.012;7.862;2022-07-12T09:42:22;37.50;55.40
12303;DHT22;6214;48.012;7.862;2022-07-12T09:44:55;36.80;55.50
12303;DHT22;6214;48.012;7.862;2022-07-12T09:47:23;36.90;57.10
12303;DHT22;6214;48.012;7.862;2022-07-12T09:49:52;37.80;56.40
12303;DHT22;6214;48.012;7.862;2022-07-12T09:52:26;37.70;55.50
12303;DHT22;6214;48.012;7.862;2022-07-12T09:54:54;37.20;56.20
12303;DHT22;6214;48.012;7.862;2022-07-12T09:57:31;36.50;57.30
12303;DHT22;6214;48.012;7.862;2022-07-12T10:00:00;36.20;56.80
12303;DHT22;6214;48.012;7.862;2022-07-12T10:02:27;36.20;57.80
12303;DHT22;6214;48.012;7.862;2022-07-12T10:04:55;35.90;58.20
12303;DHT22;6214;48.012;7.862;2022-07-12T10:07:22;35.10;59.30
12303;DHT22;6214;48.012;7.862;2022-07-12T10:09:52;34.30;61.70
12303;DHT22;6214;48.012;7.862;2022-07-12T10:12:21;34.30;62.20
12303;DHT22;6214;48.012;7.862;2022-07-12T10:14:57;33.80;62.70
12303;DHT22;6214;48.012;7.862;2022-07-12T10:17:26;33.10;63.20
12303;DHT22;6214;48.012;7.862;2022-07-12T10:22:42;31.70;67.20
12303;DHT22;6214;48.012;7.862;2022-07-12T10:25:29;31.70;69.10
12303;DHT22;6214;48.012;7.862;2022-07-12T10:27:57;31.40;69.40
12303;DHT22;6214;48.012;7.862;2022-07-12T10:30:25;31.20;71.80
12303;DHT22;6214;48.012;7.862;2022-07-12T10:32:54;31.20;72.30
12303;DHT22;6214;48.012;7.862;2022-07-12T10:35:29;31.20;72.90
12303;DHT22;6214;48.012;7.862;2022-07-12T10:40:38;31.20;73.70
12303;DHT22;6214;48.012;7.862;2022-07-12T10:45:38;30.60;75.90
12303;DHT22;6214;48.012;7.862;2022-07-12T10:48:19;30.70;75.00
12303;DHT22;6214;48.012;7.862;2022-07-12T10:53:25;30.50;76.60
12303;DHT22;6214;48.012;7.862;2022-07-12T10:58:38;30.10;78.00
12303;DHT22;6214;48.012;7.862;2022-07-12T11:01:07;30.10;76.80
12303;DHT22;6214;48.012;7.862;2022-07-12T11:03:50;29.90;76.70
12303;DHT22;6214;48.012;7.862;2022-07-12T11:06:20;29.80;77.90
12303;DHT22;6214;48.012;7.862;2022-07-12T11:08:54;29.80;79.10
12303;DHT22;6214;48.012;7.862;2022-07-12T11:13:54;30.10;79.60
12303;DHT22;6214;48.012;7.862;2022-07-12T11:16:22;30.20;78.50
12303;DHT22;6214;48.012;7.862;2022-07-12T11:18:51;30.30;79.70
12303;DHT22;6214;48.012;7.862;2022-07-12T11:21:19;30.40;78.10
12303;DHT22;6214;48.012;7.862;2022-07-12T11:23:46;30.50;78.40
12303;DHT22;6214;48.012;7.862;2022-07-12T11:26:14;30.40;79.10
12303;DHT22;6214;48.012;7.862;2022-07-12T11:28:43;30.10;78.50
12303;DHT22;6214;48.012;7.862;2022-07-12T11:31:12;30.00;80.40
12303;DHT22;6214;48.012;7.862;2022-07-12T11:33:45;30.00;81.70
12303;DHT22;6214;48.012;7.862;2022-07-12T11:36:13;29.90;79.80
12303;DHT22;6214;48.012;7.862;2022-07-12T11:38:41;29.80;80.80
12303;DHT22;6214;48.012;7.862;2022-07-12T11:41:12;29.70;82.40
12303;DHT22;6214;48.012;7.862;2022-07-12T11:43:40;29.70;80.70
12303;DHT22;6214;48.012;7.862;2022-07-12T11:46:08;29.90;81.30
12303;DHT22;6214;48.012;7.862;2022-07-12T11:48:36;29.80;79.50
12303;DHT22;6214;48.012;7.862;2022-07-12T11:51:11;29.80;83.00
12303;DHT22;6214;48.012;7.862;2022-07-12T11:53:39;29.90;80.40
12303;DHT22;6214;48.012;7.862;2022-07-12T11:56:08;30.00;81.30
12303;DHT22;6214;48.012;7.862;2022-07-12T11:58:35;30.30;83.00
12303;DHT22;6214;48.012;7.862;2022-07-12T12:01:10;30.30;81.50
12303;DHT22;6214;48.012;7.862;2022-07-12T12:03:46;30.40;81.20
12303;DHT22;6214;48.012;7.862;2022-07-12T12:06:13;30.20;80.30
12303;DHT22;6214;48.012;7.862;2022-07-12T12:08:41;30.10;81.40
12303;DHT22;6214;48.012;7.862;2022-07-12T12:11:09;30.30;80.60
12303;DHT22;6214;48.012;7.862;2022-07-12T12:13:36;30.20;82.30
12303;DHT22;6214;48.012;7.862;2022-07-12T12:16:04;30.20;80.80
12303;DHT22;6214;48.012;7.862;2022-07-12T12:18:40;30.30;81.80
12303;DHT22;6214;48.012;7.862;2022-07-12T12:21:13;30.10;81.60
12303;DHT22;6214;48.012;7.862;2022-07-12T12:23:41;30.00;82.10
12303;DHT22;6214;48.012;7.862;2022-07-12T12:26:16;30.00;83.30
12303;DHT22;6214;48.012;7.862;2022-07-12T12:28:47;29.70;82.50
12303;DHT22;6214;48.012;7.862;2022-07-12T12:31:22;29.70;83.80
12303;DHT22;6214;48.012;7.862;2022-07-12T12:33:52;29.70;85.20
12303;DHT22;6214;48.012;7.862;2022-07-12T12:36:20;30.00;83.60
12303;DHT22;6214;48.012;7.862;2022-07-12T12:38:52;29.80;82.50
12303;DHT22;6214;48.012;7.862;2022-07-12T12:41:21;30.00;82.90
12303;DHT22;6214;48.012;7.862;2022-07-12T12:44:04;30.00;83.80
12303;DHT22;6214;48.012;7.862;2022-07-12T12:46:55;30.10;83.00
12303;DHT22;6214;48.012;7.862;2022-07-12T12:49:50;30.30;84.30
12303;DHT22;6214;48.012;7.862;2022-07-12T12:52:24;30.40;81.60
12303;DHT22;6214;48.012;7.862;2022-07-12T12:54:53;30.10;81.80
12303;DHT22;6214;48.012;7.862;2022-07-12T12:57:20;30.10;83.40
12303;DHT22;6214;48.012;7.862;2022-07-12T12:59:48;30.40;85.60
12303;DHT22;6214;48.012;7.862;2022-07-12T13:02:15;30.60;83.10
12303;DHT22;6214;48.012;7.862;2022-07-12T13:04:42;30.60;82.60
12303;DHT22;6214;48.012;7.862;2022-07-12T13:07:09;30.50;82.70
12303;DHT22;6214;48.012;7.862;2022-07-12T13:09:40;30.30;81.90
12303;DHT22;6214;48.012;7.862;2022-07-12T13:12:08;30.10;84.30
12303;DHT22;6214;48.012;7.862;2022-07-12T13:14:35;30.10;84.80
12303;DHT22;6214;48.012;7.862;2022-07-12T13:17:02;30.00;83.80
12303;DHT22;6214;48.012;7.862;2022-07-12T13:19:29;30.10;83.10
12303;DHT22;6214;48.012;7.862;2022-07-12T13:21:58;30.10;83.00
12303;DHT22;6214;48.012;7.862;2022-07-12T13:24:25;30.20;84.50
12303;DHT22;6214;48.012;7.862;2022-07-12T13:26:53;30.30;85.70
12303;DHT22;6214;48.012;7.862;2022-07-12T13:29:20;30.20;85.20
12303;DHT22;6214;48.012;7.862;2022-07-12T13:31:47;30.00;84.20
12303;DHT22;6214;48.012;7.862;2022-07-12T13:34:22;29.90;84.40
12303;DHT22;6214;48.012;7.862;2022-07-12T13:36:49;29.90;85.90
12303;DHT22;6214;48.012;7.862;2022-07-12T13:39:16;30.00;85.70
12303;DHT22;6214;48.012;7.862;2022-07-12T13:42:01;29.80;84.70
12303;DHT22;6214;48.012;7.862;2022-07-12T13:44:28;29.90;85.50
12303;DHT22;6214;48.012;7.862;2022-07-12T13:46:56;29.70;87.10
12303;DHT22;6214;48.012;7.862;2022-07-12T13:49:23;29.90;88.90
12303;DHT22;6214;48.012;7.862;2022-07-12T13:51:50;29.90;87.00
12303;DHT22;6214;48.012;7.862;2022-07-12T13:54:17;29.70;85.50
12303;DHT22;6214;48.012;7.862;2022-07-12T13:56:45;29.60;85.70
12303;DHT22;6214;48.012;7.862;2022-07-12T13:59:14;29.60;88.50
12303;DHT22;6214;48.012;7.862;2022-07-12T14:01:41;29.60;86.40
12303;DHT22;6214;48.012;7.862;2022-07-12T14:04:08;29.60;85.50
12303;DHT22;6214;48.012;7.862;2022-07-12T14:06:36;29.50;87.30
12303;DHT22;6214;48.012;7.862;2022-07-12T14:09:03;29.60;86.70
12303;DHT22;6214;48.012;7.862;2022-07-12T14:11:30;29.60;85.80
12303;DHT22;6214;48.012;7.862;2022-07-12T14:13:56;29.70;85.00
12303;DHT22;6214;48.012;7.862;2022-07-12T14:16:23;29.70;85.10
12303;DHT22;6214;48.012;7.862;2022-07-12T14:18:51;29.70;86.10
12303;DHT22;6214;48.012;7.862;2022-07-12T14:21:18;29.80;86.50
12303;DHT22;6214;48.012;7.862;2022-07-12T14:23:45;29.90;86.30
12303;DHT22;6214;48.012;7.862;2022-07-12T14:26:11;29.80;85.80
12303;DHT22;6214;48.012;7.862;2022-07-12T14:28:38;29.80;86.80
12303;DHT22;6214;48.012;7.862;2022-07-12T14:31:05;29.90;89.50
12303;DHT22;6214;48.012;7.862;2022-07-12T14:33:33;29.90;87.40
12303;DHT22;6214;48.012;7.862;2022-07-12T14:36:00;30.00;87.00
12303;DHT22;6214;48.012;7.862;2022-07-12T14:38:27;29.80;86.20
12303;DHT22;6214;48.012;7.862;2022-07-12T14:40:54;29.80;85.60
12303;DHT22;6214;48.012;7.862;2022-07-12T14:43:21;29.90;86.70
12303;DHT22;6214;48.012;7.862;2022-07-12T14:45:48;29.90;86.30
12303;DHT22;6214;48.012;7.862;2022-07-12T14:48:15;29.80;86.20
12303;DHT22;6214;48.012;7.862;2022-07-12T14:50:43;29.70;86.60
12303;DHT22;6214;48.012;7.862;2022-07-12T14:53:13;29.80;88.50
12303;DHT22;6214;48.012;7.862;2022-07-12T14:55:40;29.70;86.80
12303;DHT22;6214;48.012;7.862;2022-07-12T14:58:07;29.60;88.60
12303;DHT22;6214;48.012;7.862;2022-07-12T15:00:36;29.60;88.30
12303;DHT22;6214;48.012;7.862;2022-07-12T15:03:02;29.60;89.30
12303;DHT22;6214;48.012;7.862;2022-07-12T15:05:32;29.60;89.10
12303;DHT22;6214;48.012;7.862;2022-07-12T15:07:59;29.80;87.90
12303;DHT22;6214;48.012;7.862;2022-07-12T15:10:26;29.80;87.90
12303;DHT22;6214;48.012;7.862;2022-07-12T15:12:53;29.80;88.40
12303;DHT22;6214;48.012;7.862;2022-07-12T15:15:20;29.90;87.00
12303;DHT22;6214;48.012;7.862;2022-07-12T15:17:51;29.70;88.50
12303;DHT22;6214;48.012;7.862;2022-07-12T15:20:20;29.70;88.30
12303;DHT22;6214;48.012;7.862;2022-07-12T15:22:47;29.80;88.50
12303;DHT22;6214;48.012;7.862;2022-07-12T15:25:14;29.70;87.80
12303;DHT22;6214;48.012;7.862;2022-07-12T15:27:41;29.70;88.30
12303;DHT22;6214;48.012;7.862;2022-07-12T15:30:08;29.70;87.90
12303;DHT22;6214;48.012;7.862;2022-07-12T15:32:36;29.70;87.30
12303;DHT22;6214;48.012;7.862;2022-07-12T15:35:04;29.80;87.80
12303;DHT22;6214;48.012;7.862;2022-07-12T15:37:32;29.70;87.00
12303;DHT22;6214;48.012;7.862;2022-07-12T15:39:59;29.60;87.50
12303;DHT22;6214;48.012;7.862;2022-07-12T15:42:28;29.60;88.60
12303;DHT22;6214;48.012;7.862;2022-07-12T15:44:56;29.60;88.50
12303;DHT22;6214;48.012;7.862;2022-07-12T15:47:23;29.60;88.40
12303;DHT22;6214;48.012;7.862;2022-07-12T15:49:50;29.60;86.80
12303;DHT22;6214;48.012;7.862;2022-07-12T15:52:17;29.50;87.20
12303;DHT22;6214;48.012;7.862;2022-07-12T15:55:04;29.40;87.60
12303;DHT22;6214;48.012;7.862;2022-07-12T15:57:36;29.40;88.40
12303;DHT22;6214;48.012;7.862;2022-07-12T16:00:04;29.40;88.30
12303;DHT22;6214;48.012;7.862;2022-07-12T16:02:33;29.50;89.40
12303;DHT22;6214;48.012;7.862;2022-07-12T16:05:00;29.50;88.60
12303;DHT22;6214;48.012;7.862;2022-07-12T16:07:28;29.60;88.90
12303;DHT22;6214;48.012;7.862;2022-07-12T16:09:55;29.50;87.40